Time;durP1;ratioP1;P1;durP2;ratioP2;P2;SDS_P1;SDS_P2;PMS_P1;PMS_P2;Temp;Humidity;BMP_temperature;BMP_pressure;BME280_temperature;BME280_humidity;BME280_pressure;Samples;Min_cycle;Max_cycle;Signal;HPM_P1;HPM_P2
2022/12/31 00:00:39;;;;;;;11.07;7.10;;;;;;;7.09;78.31;100118.02;1606107;87;21098;-71
2022/12/31 00:03:09;;;;;;;12.10;7.03;;;;;;;7.13;78.29;100118.81;1606157;89;21592;-71
2022/12/31 00:05:37;;;;;;;10.80;6.50;;;;;;;7.17;78.29;100119.58;1614583;86;21087;-71
2022/12/31 00:08:05;;;;;;;8.57;5.43;;;;;;;7.20;78.24;100119.03;1642463;85;21083;-71
2022/12/31 00:10:38;;;;;;;11.13;6.27;;;;;;;7.23;78.19;100118.94;1643837;85;21133;-71
2022/12/31 00:13:01;;;;;;;10.67;6.37;;;;;;;7.25;78.16;100123.67;1641921;85;21098;-71
2022/12/31 00:15:30;;;;;;;11.80;6.83;;;;;;;7.28;78.14;100114.91;1645151;85;21754;-72
2022/12/31 00:17:58;;;;;;;9.80;6.03;;;;;;;7.28;78.05;100109.25;1614831;86;21091;-71
2022/12/31 00:20:26;;;;;;;13.70;8.93;;;;;;;7.30;78.00;100101.40;1643694;86;21128;-71
2022/12/31 00:22:53;;;;;;;26.00;15.00;;;;;;;7.30;77.95;100111.37;1642587;85;21110;-71
2022/12/31 00:25:20;;;;;;;12.80;8.37;;;;;;;7.29;77.88;100108.37;1643120;85;21077;-71
2022/12/31 00:27:47;;;;;;;11.67;6.90;;;;;;;7.29;77.84;100120.56;1614871;86;21087;-71
2022/12/31 00:30:15;;;;;;;8.47;5.43;;;;;;;7.30;77.90;100130.08;1644397;85;21500;-71
2022/12/31 00:32:44;;;;;;;10.80;6.17;;;;;;;7.30;77.90;100128.77;1643529;85;21175;-71
2022/12/31 00:35:11;;;;;;;17.77;9.87;;;;;;;7.31;77.87;100126.10;1642079;85;21157;-71
2022/12/31 00:37:40;;;;;;;58.23;24.13;;;;;;;7.31;77.88;100127.41;1642621;86;21071;-71
2022/12/31 00:40:10;;;;;;;57.10;23.27;;;;;;;7.33;77.90;100129.98;1641736;86;21040;-71
2022/12/31 00:42:37;;;;;;;22.73;11.43;;;;;;;7.33;77.87;100133.90;1642399;86;21076;-71
2022/12/31 00:45:07;;;;;;;23.07;10.23;;;;;;;7.32;77.91;100133.05;1642379;85;21691;-71
2022/12/31 00:47:34;;;;;;;17.27;7.70;;;;;;;7.34;77.95;100124.74;1640562;85;21114;-71
2022/12/31 00:50:03;;;;;;;10.00;6.87;;;;;;;7.35;77.96;100132.96;1608566;87;21068;-71
2022/12/31 00:52:30;;;;;;;10.87;6.87;;;;;;;7.36;78.01;100122.08;1599622;87;21075;-71
2022/12/31 00:54:57;;;;;;;10.60;6.00;;;;;;;7.38;78.03;100130.72;1600920;87;21136;-71
2022/12/31 00:57:25;;;;;;;9.07;5.63;;;;;;;7.38;78.03;100127.66;1599192;87;21094;-71
2022/12/31 00:59:52;;;;;;;11.93;6.07;;;;;;;7.37;78.06;100123.34;1600221;87;21140;-71
2022/12/31 01:02:20;;;;;;;7.50;5.17;;;;;;;7.39;78.09;100125.89;1602362;87;21084;-71
2022/12/31 01:04:47;;;;;;;8.83;5.97;;;;;;;7.40;78.12;100116.31;1602431;87;21062;-71
2022/12/31 01:07:14;;;;;;;7.13;4.67;;;;;;;7.37;78.05;100114.64;1600263;87;21446;-71
2022/12/31 01:09:41;;;;;;;8.27;5.07;;;;;;;7.37;78.16;100117.25;1599834;87;21856;-71
2022/12/31 01:12:08;;;;;;;7.70;4.97;;;;;;;7.36;78.12;100119.02;1600514;87;21157;-71
2022/12/31 01:14:35;;;;;;;8.17;5.00;;;;;;;7.33;78.14;100109.98;1600074;87;21586;-71
2022/12/31 01:17:02;;;;;;;5.97;4.20;;;;;;;7.31;78.25;100111.77;1601747;87;21092;-71
2022/12/31 01:19:29;;;;;;;7.13;4.70;;;;;;;7.33;78.33;100126.08;1600416;87;21654;-71
2022/12/31 01:21:57;;;;;;;7.40;4.40;;;;;;;7.31;78.38;100116.98;1600291;87;21120;-71
2022/12/31 01:24:25;;;;;;;7.97;4.93;;;;;;;7.32;78.48;100115.25;1600316;87;21164;-71
2022/12/31 01:26:56;;;;;;;6.93;4.53;;;;;;;7.33;78.59;100129.53;1600374;87;21515;-71
2022/12/31 01:29:21;;;;;;;5.70;4.03;;;;;;;7.35;78.68;100132.96;1600181;87;21076;-71
2022/12/31 01:31:50;;;;;;;7.93;4.83;;;;;;;7.37;78.66;100129.87;1600568;87;21535;-71
2022/12/31 01:34:19;;;;;;;6.30;4.20;;;;;;;7.38;78.76;100125.05;1602805;87;21084;-72
2022/12/31 01:36:46;;;;;;;6.80;4.13;;;;;;;7.41;78.79;100126.72;1604469;88;21160;-71
2022/12/31 01:39:13;;;;;;;6.97;4.30;;;;;;;7.42;78.84;100120.59;1600222;88;21132;-71
2022/12/31 01:41:44;;;;;;;7.30;4.60;;;;;;;7.44;78.89;100124.47;1599845;87;21458;-72
2022/12/31 01:44:25;;;;;;;9.40;4.30;;;;;;;7.45;78.91;100131.38;1602970;88;21096;-71
2022/12/31 01:47:02;;;;;;;9.70;5.50;;;;;;;7.46;78.96;100134.42;1600924;87;22242;-71
2022/12/31 01:49:37;;;;;;;5.97;3.93;;;;;;;7.48;78.95;100138.70;1607616;87;21128;-70
2022/12/31 01:52:30;;;;;;;6.90;4.67;;;;;;;7.50;79.07;100150.37;1607862;89;21085;-71
2022/12/31 01:55:11;;;;;;;7.47;5.07;;;;;;;7.50;79.11;100143.84;1606449;89;21077;-71
2022/12/31 01:57:38;;;;;;;12.07;7.60;;;;;;;7.51;79.08;100138.61;1608189;89;21104;-71
2022/12/31 02:00:08;;;;;;;20.50;10.20;;;;;;;7.53;79.12;100148.52;1606374;86;21086;-71
2022/12/31 02:02:36;;;;;;;12.03;6.10;;;;;;;7.53;79.11;100147.22;1606894;87;27691;-71
2022/12/31 02:05:12;;;;;;;13.30;6.40;;;;;;;7.51;79.08;100146.43;1608418;89;21170;-71
2022/12/31 02:07:39;;;;;;;11.03;6.10;;;;;;;7.49;79.08;100143.00;1602883;87;21085;-71
2022/12/31 02:10:07;;;;;;;10.77;6.10;;;;;;;7.46;79.08;100140.48;1608302;87;21644;-71
2022/12/31 02:12:34;;;;;;;8.57;4.60;;;;;;;7.43;79.13;100134.05;1608208;88;21742;-70
2022/12/31 02:15:03;;;;;;;8.10;4.77;;;;;;;7.40;79.13;100148.48;1608427;87;21134;-71
2022/12/31 02:17:47;;;;;;;9.33;5.10;;;;;;;7.36;79.20;100154.21;1607758;87;21035;-71
2022/12/31 02:20:41;;;;;;;6.40;4.23;;;;;;;7.34;79.32;100158.64;1601717;87;21069;-72
2022/12/31 02:23:22;;;;;;;5.93;4.53;;;;;;;7.31;79.39;100157.39;1607242;87;21527;-71
2022/12/31 02:26:31;;;;;;;5.97;3.83;;;;;;;7.30;79.55;100159.60;1637009;85;21102;-71
2022/12/31 02:29:18;;;;;;;6.97;3.70;;;;;;;7.29;79.67;100161.81;1636608;85;21105;-70
2022/12/31 02:31:56;;;;;;;6.80;3.87;;;;;;;7.32;79.90;100170.00;1637436;87;21078;-71
2022/12/31 02:34:39;;;;;;;5.97;3.87;;;;;;;7.34;79.98;100166.45;1636171;85;21098;-71
2022/12/31 02:37:11;;;;;;;6.33;3.40;;;;;;;7.37;80.01;100162.88;1636886;85;21655;-71
2022/12/31 02:39:40;;;;;;;5.37;3.63;;;;;;;7.38;80.03;100151.58;1616957;85;21506;-72
2022/12/31 02:42:08;;;;;;;5.40;3.40;;;;;;;7.38;80.00;100146.36;1637321;85;21149;-71
2022/12/31 02:44:41;;;;;;;5.70;3.80;;;;;;;7.33;79.98;100149.09;1615702;87;21082;-71
2022/12/31 02:47:47;;;;;;;5.47;3.10;;;;;;;7.31;80.06;100154.78;1637436;85;21133;-71
2022/12/31 02:50:37;;;;;;;5.47;2.90;;;;;;;7.29;80.13;100160.52;1618064;87;21063;-71
2022/12/31 02:53:27;;;;;;;4.70;3.27;;;;;;;7.25;80.16;100161.93;1616671;86;21591;-71
2022/12/31 02:56:08;;;;;;;4.00;2.97;;;;;;;7.21;80.25;100173.35;1616606;88;21945;-71
2022/12/31 03:02:14;;;;;;;5.53;3.00;;;;;;;7.14;80.60;100183.91;1616698;88;21153;-71
2022/12/31 03:04:56;;;;;;;5.20;2.80;;;;;;;7.11;80.77;100184.00;1616519;88;21072;-71
2022/12/31 03:07:27;;;;;;;4.73;2.47;;;;;;;7.12;80.91;100188.34;1616821;87;21548;-70
2022/12/31 03:09:55;;;;;;;3.83;2.80;;;;;;;7.12;81.03;100184.84;1616869;88;21092;-70
2022/12/31 03:12:45;;;;;;;4.47;2.50;;;;;;;7.12;81.06;100187.45;1616748;88;20999;-71
2022/12/31 03:15:26;;;;;;;3.80;2.25;;;;;;;7.12;81.12;100187.45;1617070;88;21418;-71
2022/12/31 03:18:04;;;;;;;4.35;2.80;;;;;;;7.11;81.20;100192.27;1616763;88;21075;-72
2022/12/31 03:23:48;;;;;;;4.23;2.77;;;;;;;7.11;81.50;100187.91;1617229;86;21271;-71
2022/12/31 03:26:12;;;;;;;5.17;2.50;;;;;;;7.13;81.65;100192.64;1617016;86;21043;-71
2022/12/31 03:28:42;;;;;;;4.37;2.70;;;;;;;7.19;81.73;100182.50;1616529;88;21644;-71
2022/12/31 03:31:09;;;;;;;3.80;2.22;;;;;;;7.20;81.73;100184.20;1617025;88;21059;-71
2022/12/31 03:33:40;;;;;;;3.57;2.30;;;;;;;7.23;81.77;100176.30;1616601;88;21059;-72
2022/12/31 03:36:15;;;;;;;3.90;2.17;;;;;;;7.24;81.77;100179.78;1616665;88;26766;-71
2022/12/31 03:38:42;;;;;;;4.30;2.90;;;;;;;7.26;81.78;100175.36;1616639;88;21071;-71
2022/12/31 03:41:10;;;;;;;4.03;2.53;;;;;;;7.25;81.80;100179.72;1617565;86;21071;-71
2022/12/31 03:43:38;;;;;;;4.53;2.50;;;;;;;7.25;81.73;100178.88;1616512;88;21127;-71
2022/12/31 03:46:05;;;;;;;3.53;2.20;;;;;;;7.24;81.75;100177.17;1618199;86;21404;-71
2022/12/31 03:48:34;;;;;;;3.43;2.10;;;;;;;7.21;81.80;100178.11;1620760;86;21132;-71
2022/12/31 03:51:01;;;;;;;4.43;2.00;;;;;;;7.21;81.89;100183.32;1634772;87;21081;-71
2022/12/31 03:53:30;;;;;;;2.40;1.83;;;;;;;7.19;81.94;100181.20;1608244;87;21052;-72
2022/12/31 03:55:59;;;;;;;3.27;2.30;;;;;;;7.18;82.00;100179.50;1589336;88;21108;-72
2022/12/31 03:58:26;;;;;;;3.83;2.23;;;;;;;7.18;82.04;100178.20;1589469;88;21559;-71
2022/12/31 04:00:53;;;;;;;3.80;2.30;;;;;;;7.18;82.20;100183.41;1591348;88;21177;-71
2022/12/31 04:03:20;;;;;;;2.83;2.17;;;;;;;7.18;82.25;100191.23;1591132;88;21058;-71
2022/12/31 04:05:54;;;;;;;3.17;2.10;;;;;;;7.17;82.41;100169.95;1636412;87;21092;-71
2022/12/31 04:08:23;;;;;;;2.63;2.20;;;;;;;7.19;82.46;100181.20;1608790;87;21139;-71
2022/12/31 04:10:51;;;;;;;2.70;1.90;;;;;;;7.20;82.53;100184.20;1590291;90;21108;-71
2022/12/31 04:13:19;;;;;;;4.93;2.20;;;;;;;7.22;82.51;100189.39;1589798;88;21185;-71
2022/12/31 04:15:51;;;;;;;3.30;2.00;;;;;;;7.20;82.54;100190.72;1634638;85;21080;-71
2022/12/31 04:18:18;;;;;;;4.87;2.23;;;;;;;7.20;82.64;100195.93;1638061;86;21087;-71
2022/12/31 04:20:45;;;;;;;3.37;2.13;;;;;;;7.20;82.64;100202.90;1637578;86;21015;-71
2022/12/31 04:23:12;;;;;;;3.40;2.20;;;;;;;7.20;82.76;100201.59;1633246;87;21123;-71
2022/12/31 04:25:41;;;;;;;3.43;2.43;;;;;;;7.19;82.78;100200.75;1633041;87;21209;-71
2022/12/31 04:28:11;;;;;;;4.28;2.33;;;;;;;7.20;82.95;100199.84;1633812;87;22288;-71
2022/12/31 04:30:39;;;;;;;3.83;2.80;;;;;;;7.22;82.99;100198.51;1608155;87;21084;-71
2022/12/31 04:33:06;;;;;;;3.27;2.33;;;;;;;7.25;83.05;100194.06;1589509;90;21050;-71
2022/12/31 04:35:33;;;;;;;4.03;2.50;;;;;;;7.26;83.16;100191.88;1589088;89;21100;-71
2022/12/31 04:38:00;;;;;;;4.20;3.00;;;;;;;7.28;83.20;100190.52;1590481;88;21073;-72
2022/12/31 04:40:29;;;;;;;4.10;2.67;;;;;;;7.27;83.11;100187.52;1574237;88;21519;-71
2022/12/31 04:42:56;;;;;;;4.80;2.83;;;;;;;7.25;83.17;100187.55;1599806;87;21100;-71
2022/12/31 04:45:25;;;;;;;4.37;3.00;;;;;;;7.26;83.17;100181.88;1604149;87;21083;-72
2022/12/31 04:47:52;;;;;;;3.93;2.50;;;;;;;7.24;83.20;100188.45;1600558;88;21201;-71
2022/12/31 04:50:19;;;;;;;3.23;2.47;;;;;;;7.22;83.26;100190.69;1598592;88;21962;-71
2022/12/31 04:52:46;;;;;;;3.97;2.90;;;;;;;7.21;83.33;100195.51;1596501;88;21069;-71
2022/12/31 04:55:13;;;;;;;4.47;2.83;;;;;;;7.18;83.35;100201.66;1596723;89;21507;-71
2022/12/31 04:57:42;;;;;;;4.17;2.90;;;;;;;7.17;83.48;100212.95;1596205;88;21025;-71
2022/12/31 05:00:12;;;;;;;5.63;3.57;;;;;;;7.19;83.58;100218.14;1596360;88;21069;-71
2022/12/31 05:02:39;;;;;;;3.90;2.95;;;;;;;7.19;83.69;100228.12;1596043;88;21179;-71
2022/12/31 05:05:08;;;;;;;3.83;2.60;;;;;;;7.18;83.71;100210.78;1596928;89;21558;-71
2022/12/31 05:07:37;;;;;;;3.33;2.70;;;;;;;7.20;83.86;100206.36;1592043;89;21104;-71
2022/12/31 05:10:06;;;;;;;6.17;4.00;;;;;;;7.22;83.87;100214.16;1591796;88;21123;-71
2022/12/31 05:12:35;;;;;;;8.63;4.90;;;;;;;7.23;83.93;100205.42;1591720;88;21123;-71
2022/12/31 05:15:02;;;;;;;5.93;3.53;;;;;;;7.24;84.00;100204.55;1577965;88;21099;-71
2022/12/31 05:17:29;;;;;;;5.43;3.20;;;;;;;7.26;84.03;100204.03;1576430;88;21085;-71
2022/12/31 05:19:56;;;;;;;3.93;3.07;;;;;;;7.26;84.08;100208.83;1578344;89;21125;-71
2022/12/31 05:22:29;;;;;;;5.45;3.65;;;;;;;7.28;84.14;100203.10;1576831;90;21087;-71
2022/12/31 05:24:58;;;;;;;4.17;3.20;;;;;;;7.31;84.25;100203.47;1576637;90;21059;-71
2022/12/31 05:27:29;;;;;;;4.17;2.75;;;;;;;7.32;84.28;100203.44;1576645;88;21182;-71
2022/12/31 05:29:57;;;;;;;4.57;3.10;;;;;;;7.36;84.44;100198.99;1577402;89;21077;-71
2022/12/31 05:32:24;;;;;;;4.60;3.13;;;;;;;7.42;84.51;100199.27;1577432;89;21115;-71
2022/12/31 05:34:52;;;;;;;3.93;2.87;;;;;;;7.47;84.57;100202.61;1576648;88;21149;-71
2022/12/31 05:37:19;;;;;;;4.40;2.90;;;;;;;7.51;84.64;100206.83;1576821;88;21103;-71
2022/12/31 05:39:46;;;;;;;4.50;2.93;;;;;;;7.55;84.63;100210.63;1576951;88;21126;-71
2022/12/31 05:42:13;;;;;;;4.10;2.80;;;;;;;7.58;84.61;100206.63;1576901;89;21525;-71
2022/12/31 05:44:40;;;;;;;4.10;2.60;;;;;;;7.62;84.68;100201.33;1576794;90;21111;-75
2022/12/31 05:47:08;;;;;;;3.70;2.73;;;;;;;7.66;84.65;100209.03;1578051;88;21107;-72
2022/12/31 05:49:35;;;;;;;4.00;2.60;;;;;;;7.68;84.66;100203.78;1583624;88;21653;-72
2022/12/31 05:52:02;;;;;;;4.23;3.07;;;;;;;7.70;84.63;100207.18;1597008;88;21974;-72
2022/12/31 05:54:30;;;;;;;4.63;3.17;;;;;;;7.72;84.68;100208.84;1597461;88;21084;-72
2022/12/31 05:56:59;;;;;;;5.50;4.27;;;;;;;7.74;84.68;100221.87;1596877;88;21642;-72
2022/12/31 05:59:26;;;;;;;7.53;4.87;;;;;;;7.77;84.74;100224.39;1596906;88;21499;-72
2022/12/31 06:01:53;;;;;;;7.50;4.10;;;;;;;7.81;84.80;100219.47;1597013;88;21117;-72
2022/12/31 06:04:21;;;;;;;6.70;3.90;;;;;;;7.87;84.88;100215.83;1597212;88;21321;-75
2022/12/31 06:06:48;;;;;;;6.13;2.73;;;;;;;7.90;84.86;100213.13;1597742;89;21112;-74
2022/12/31 06:09:16;;;;;;;4.00;2.67;;;;;;;7.92;84.79;100220.47;1596625;89;21621;-74
2022/12/31 06:11:44;;;;;;;5.23;2.80;;;;;;;7.93;84.74;100221.75;1597016;89;21149;-82
2022/12/31 06:14:12;;;;;;;3.27;2.47;;;;;;;7.94;84.72;100219.98;1597299;88;21160;-77
2022/12/31 06:16:40;;;;;;;4.27;2.70;;;;;;;7.94;84.66;100216.07;1643166;85;21143;-75
2022/12/31 06:19:08;;;;;;;7.00;4.27;;;;;;;7.94;84.72;100219.53;1643502;86;21013;-81
2022/12/31 06:21:35;;;;;;;4.93;3.30;;;;;;;7.94;84.68;100218.22;1615421;86;21086;-75
2022/12/31 06:24:03;;;;;;;6.43;3.73;;;;;;;7.94;84.67;100209.09;1642468;85;21119;-76
2022/12/31 06:26:34;;;;;;;5.20;3.20;;;;;;;7.93;84.66;100210.45;1643641;85;21092;-75
2022/12/31 06:29:01;;;;;;;8.20;5.53;;;;;;;7.93;84.76;100208.70;1642331;86;21656;-78
2022/12/31 06:31:28;;;;;;;13.07;8.50;;;;;;;7.93;84.73;100202.63;1642002;85;21012;-73
2022/12/31 06:33:55;;;;;;;16.93;9.43;;;;;;;7.91;84.70;100214.86;1642389;85;21102;-71
2022/12/31 06:36:22;;;;;;;17.33;10.53;;;;;;;7.90;84.72;100211.83;1641755;86;21150;-77
2022/12/31 06:38:49;;;;;;;16.07;9.50;;;;;;;7.89;84.78;100219.26;1642913;85;21587;-78
2022/12/31 06:41:17;;;;;;;8.60;4.43;;;;;;;7.86;84.85;100218.89;1644286;85;21466;-73
2022/12/31 06:43:45;;;;;;;12.90;5.13;;;;;;;7.85;84.88;100219.81;1617496;86;21064;-78
2022/12/31 06:46:15;;;;;;;8.10;4.10;;;;;;;7.86;84.91;100210.22;1644903;85;21091;-76
2022/12/31 06:48:43;;;;;;;8.15;4.30;;;;;;;7.86;85.03;100214.13;1644835;85;21158;-72
2022/12/31 06:51:17;;;;;;;5.40;3.60;;;;;;;7.85;85.04;100217.20;1628891;85;21154;-73
2022/12/31 06:53:48;;;;;;;9.03;4.60;;;;;;;7.83;85.06;100223.75;1623789;87;21591;-74
2022/12/31 06:56:19;;;;;;;5.13;3.47;;;;;;;7.82;85.15;100220.75;1605035;87;21650;-73
2022/12/31 06:58:48;;;;;;;4.47;2.87;;;;;;;7.84;85.16;100224.59;1608269;87;21061;-74
2022/12/31 07:01:57;;;;;;;5.60;3.63;;;;;;;7.86;85.35;100223.27;1626827;87;21139;-74
2022/12/31 07:05:01;;;;;;;5.77;3.17;;;;;;;7.89;85.40;100227.09;1595889;89;21090;-72
2022/12/31 07:07:54;;;;;;;4.73;2.60;;;;;;;7.91;85.52;100231.37;1596359;88;21184;-71
2022/12/31 07:10:30;;;;;;;5.20;2.83;;;;;;;7.95;85.60;100224.30;1593120;88;21093;-72
2022/12/31 07:13:23;;;;;;;2.97;2.17;;;;;;;7.96;85.62;100232.09;1597931;87;21096;-77
2022/12/31 07:15:59;;;;;;;5.53;4.00;;;;;;;8.00;85.63;100244.14;1602780;87;21142;-74
2022/12/31 07:18:56;;;;;;;10.53;5.77;;;;;;;8.05;85.74;100238.80;1606292;87;21090;-72
2022/12/31 07:21:36;;;;;;;6.10;3.47;;;;;;;8.10;85.81;100245.20;1613292;87;21322;-77
2022/12/31 07:24:06;;;;;;;6.27;3.63;;;;;;;8.15;85.83;100240.25;1531973;91;21372;-73
2022/12/31 07:26:58;;;;;;;5.40;3.33;;;;;;;8.18;85.81;100243.22;1543910;91;28314;-77
2022/12/31 07:30:05;;;;;;;5.40;3.73;;;;;;;8.22;85.86;100249.59;1531900;91;21172;-75
2022/12/31 07:33:10;;;;;;;4.83;3.33;;;;;;;8.27;85.82;100244.23;1543653;91;21189;-83
2022/12/31 07:36:06;;;;;;;9.83;5.93;;;;;;;8.32;85.92;100239.73;1527983;91;21139;-77
2022/12/31 07:39:02;;;;;;;5.33;3.73;;;;;;;8.40;85.98;100249.53;1527917;91;21721;-72
2022/12/31 07:41:47;;;;;;;5.93;4.00;;;;;;;8.47;85.99;100248.42;1541244;91;21219;-74
2022/12/31 07:44:47;;;;;;;6.07;3.60;;;;;;;8.55;85.97;100241.67;1544194;91;21031;-72
2022/12/31 07:47:22;;;;;;;5.62;3.50;;;;;;;8.60;85.98;100242.84;1544376;91;21145;-73
2022/12/31 07:49:50;;;;;;;5.70;3.60;;;;;;;8.65;85.89;100238.33;1532797;90;21317;-75
2022/12/31 07:52:18;;;;;;;4.47;3.57;;;;;;;8.69;85.92;100246.46;1552658;90;21459;-71
2022/12/31 07:54:45;;;;;;;5.63;4.00;;;;;;;8.74;85.91;100236.72;1548658;90;21033;-71
2022/12/31 07:57:16;;;;;;;7.60;4.97;;;;;;;8.76;85.80;100234.92;1546399;91;21121;-78
2022/12/31 08:00:13;;;;;;;6.37;3.97;;;;;;;8.78;85.78;100233.55;1553302;90;21712;-70
2022/12/31 08:02:57;;;;;;;7.07;3.80;;;;;;;8.80;85.74;100236.52;1616656;87;21313;-70
2022/12/31 08:05:32;;;;;;;5.00;3.50;;;;;;;8.83;85.77;100247.33;1590166;88;21572;-70
2022/12/31 08:08:32;;;;;;;5.13;3.40;;;;;;;8.86;85.87;100255.91;1577739;88;21099;-70
2022/12/31 08:11:10;;;;;;;6.05;3.62;;;;;;;8.89;85.82;100247.97;1577053;90;21583;-74
2022/12/31 08:13:41;;;;;;;4.27;3.33;;;;;;;8.93;85.85;100251.36;1577012;90;21707;-73
2022/12/31 08:16:10;;;;;;;;;;;;;;;8.97;85.86;100265.17;1579474;90;21191;-72
2022/12/31 08:18:38;;;;;;;5.63;3.43;;;;;;;9.03;86.09;100266.27;1576450;89;20952;-72
2022/12/31 08:21:19;;;;;;;6.40;4.03;;;;;;;9.07;86.05;100257.44;1576459;90;21122;-72
2022/12/31 08:24:28;;;;;;;4.03;3.53;;;;;;;9.10;85.98;100267.34;1575766;90;21114;-73
2022/12/31 08:27:15;;;;;;;7.33;3.90;;;;;;;9.16;86.02;100256.67;1576307;89;21091;-72
2022/12/31 08:30:09;;;;;;;5.53;3.47;;;;;;;9.21;86.04;100242.14;1574739;89;21539;-73
2022/12/31 08:33:16;;;;;;;6.50;5.83;;;;;;;9.28;86.08;100249.31;1574849;90;21099;-75
2022/12/31 08:36:25;;;;;;;5.63;4.33;;;;;;;9.34;86.08;100228.20;1575063;89;21140;-72
2022/12/31 08:39:28;;;;;;;5.70;4.80;;;;;;;9.40;85.98;100225.37;1574980;90;21110;-71
2022/12/31 08:41:59;;;;;;;7.70;6.90;;;;;;;9.46;86.00;100234.77;1578703;88;21094;-72
2022/12/31 08:44:34;;;;;;;5.67;4.58;;;;;;;9.53;86.01;100234.50;1577144;89;21095;-70
2022/12/31 08:47:19;;;;;;;6.63;4.63;;;;;;;9.58;85.97;100220.77;1576619;89;21070;-70
2022/12/31 08:49:47;;;;;;;3.90;3.07;;;;;;;9.65;85.93;100224.50;1576467;89;20986;-74
2022/12/31 08:52:26;;;;;;;5.80;3.62;;;;;;;9.72;85.89;100209.80;1601479;88;21138;-71
2022/12/31 08:54:54;;;;;;;3.50;2.93;;;;;;;9.77;85.83;100222.27;1654295;84;21047;-72
2022/12/31 08:57:42;;;;;;;3.67;2.37;;;;;;;9.82;85.77;100219.50;1655345;85;21140;-72
2022/12/31 09:00:17;;;;;;;2.60;1.70;;;;;;;9.87;85.73;100234.59;1618219;88;21067;-72
2022/12/31 09:03:22;;;;;;;3.67;2.00;;;;;;;9.91;85.62;100241.40;1607539;88;21082;-72
2022/12/31 09:06:07;;;;;;;2.33;1.90;;;;;;;9.97;85.59;100242.94;1606691;89;21607;-72
2022/12/31 09:09:23;;;;;;;2.77;1.70;;;;;;;10.03;85.50;100234.42;1608067;87;22218;-71
2022/12/31 09:12:23;;;;;;;1.73;1.30;;;;;;;10.09;85.45;100240.31;1608114;87;21155;-72
2022/12/31 09:15:16;;;;;;;3.33;1.60;;;;;;;10.15;85.41;100244.03;1608973;87;21579;-71
2022/12/31 09:17:48;;;;;;;2.57;1.50;;;;;;;10.20;85.39;100246.87;1611522;88;21582;-74
2022/12/31 09:20:23;;;;;;;2.33;1.50;;;;;;;10.30;85.36;100246.09;1569458;89;21129;-74
2022/12/31 09:22:52;;;;;;;2.63;1.17;;;;;;;10.44;85.38;100235.07;1540646;91;21137;-74
2022/12/31 09:25:23;;;;;;;2.00;1.23;;;;;;;10.59;85.33;100235.80;1540862;91;21129;-74
2022/12/31 09:28:04;;;;;;;2.42;1.37;;;;;;;10.76;85.31;100235.11;1540845;91;21053;-74
2022/12/31 09:30:55;;;;;;;2.62;1.32;;;;;;;10.94;85.36;100224.32;1540297;91;21134;-74
2022/12/31 09:33:36;;;;;;;1.52;1.22;;;;;;;11.14;85.16;100233.97;1540614;90;21174;-75
2022/12/31 09:36:08;;;;;;;2.00;1.32;;;;;;;11.25;84.91;100229.16;1541201;91;21611;-73
2022/12/31 09:38:51;;;;;;;2.05;1.05;;;;;;;11.31;84.63;100236.77;1538758;91;21179;-72
2022/12/31 09:41:38;;;;;;;1.52;1.00;;;;;;;11.39;84.51;100248.25;1537264;91;21168;-73
2022/12/31 09:44:54;;;;;;;1.52;1.07;;;;;;;11.47;84.35;100251.83;1534127;92;21219;-72
2022/12/31 09:48:06;;;;;;;1.27;0.82;;;;;;;11.51;84.21;100251.64;1526373;92;21125;-71
2022/12/31 09:50:53;;;;;;;1.07;0.75;;;;;;;11.55;84.04;100240.55;1526587;92;21155;-71
2022/12/31 09:53:56;;;;;;;1.57;0.85;;;;;;;11.55;83.95;100225.64;1515578;93;21839;-71
2022/12/31 09:56:28;;;;;;;2.08;1.02;;;;;;;11.58;83.94;100222.03;1530038;91;21089;-71
2022/12/31 09:59:03;;;;;;;2.00;0.93;;;;;;;11.64;83.91;100224.84;1554324;90;21251;-72
2022/12/31 10:01:57;;;;;;;1.47;0.90;;;;;;;11.70;83.88;100207.53;1562558;89;21174;-72
2022/12/31 10:04:46;;;;;;;1.52;0.85;;;;;;;11.78;83.75;100203.64;1624017;86;21053;-73
2022/12/31 10:07:41;;;;;;;1.15;0.90;;;;;;;11.91;83.68;100208.36;1623499;87;21532;-72
2022/12/31 10:10:23;;;;;;;1.12;0.75;;;;;;;12.06;83.53;100201.09;1622935;87;21093;-72
2022/12/31 10:13:23;;;;;;;1.65;0.70;;;;;;;12.26;83.37;100202.78;1623351;87;22324;-74
2022/12/31 10:16:11;;;;;;;1.60;0.80;;;;;;;12.35;83.15;100200.19;1623725;87;26584;-75
2022/12/31 10:18:56;;;;;;;1.70;1.00;;;;;;;12.43;82.77;100196.73;1622403;87;21066;-72
2022/12/31 10:21:49;;;;;;;0.80;0.70;;;;;;;12.58;82.82;100200.38;1607338;86;21175;-73
2022/12/31 10:25:00;;;;;;;1.60;0.85;;;;;;;12.71;82.55;100196.23;1621057;88;21091;-74
2022/12/31 10:27:48;;;;;;;2.45;0.82;;;;;;;12.79;82.18;100198.02;1623797;86;21081;-73
2022/12/31 10:30:20;;;;;;;2.08;1.00;;;;;;;12.83;81.93;100188.20;1539243;91;21130;-73
2022/12/31 10:33:19;;;;;;;1.07;0.95;;;;;;;12.89;81.88;100194.49;1538999;91;22086;-73
2022/12/31 10:35:57;;;;;;;2.15;1.17;;;;;;;12.97;81.72;100194.08;1538676;91;21134;-74
2022/12/31 10:38:54;;;;;;;2.05;1.20;;;;;;;13.07;81.69;100186.97;1537971;91;21631;-74
2022/12/31 10:41:47;;;;;;;1.82;1.00;;;;;;;13.13;81.43;100178.75;1538932;92;21168;-80
2022/12/31 10:44:48;;;;;;;1.82;1.20;;;;;;;13.29;81.39;100187.22;1539202;91;21102;-75
2022/12/31 10:47:59;;;;;;;2.20;1.02;;;;;;;13.47;81.32;100184.96;1539723;91;21170;-73
2022/12/31 10:50:50;;;;;;;2.75;1.42;;;;;;;13.70;80.97;100186.37;1563214;89;21633;-74
2022/12/31 10:53:56;;;;;;;2.47;1.32;;;;;;;13.97;80.93;100184.04;1522203;92;21647;-73
2022/12/31 10:57:00;;;;;;;2.95;1.42;;;;;;;14.15;80.45;100190.55;1525665;91;21752;-74
2022/12/31 10:59:56;;;;;;;2.10;1.40;;;;;;;14.14;80.08;100203.35;1526957;93;21147;-80
2022/12/31 11:02:54;;;;;;;2.30;1.32;;;;;;;13.97;79.75;100193.73;1526854;91;21214;-74
2022/12/31 11:05:54;;;;;;;2.17;1.55;;;;;;;13.92;79.60;100187.86;1526014;92;21185;-72
2022/12/31 11:09:01;;;;;;;2.67;1.55;;;;;;;13.91;79.75;100180.87;1490115;95;21308;-81
2022/12/31 11:11:49;;;;;;;3.33;1.80;;;;;;;13.87;79.91;100188.09;1487552;94;21133;-76
2022/12/31 11:14:31;;;;;;;2.02;1.50;;;;;;;13.91;79.90;100180.87;1500977;93;21135;-76
2022/12/31 11:17:41;;;;;;;1.42;1.20;;;;;;;13.95;79.90;100174.52;1516518;92;21178;-78
2022/12/31 11:20:36;;;;;;;2.60;1.90;;;;;;;14.21;80.14;100175.70;1521012;91;22054;-76
2022/12/31 11:23:21;;;;;;;1.92;1.22;;;;;;;14.36;80.00;100179.28;1517885;92;21365;-77
2022/12/31 11:26:30;;;;;;;6.22;2.87;;;;;;;14.51;79.98;100170.02;1522118;92;21735;-76
2022/12/31 11:29:14;;;;;;;1.57;1.15;;;;;;;14.66;79.87;100173.62;1506755;92;21174;-75
2022/12/31 11:32:14;;;;;;;3.40;1.50;;;;;;;14.78;80.00;100170.73;1501478;93;21253;-77
2022/12/31 11:35:18;;;;;;;4.67;2.17;;;;;;;14.90;79.91;100164.72;1507488;93;21156;-76
2022/12/31 11:37:54;;;;;;;1.00;0.90;;;;;;;15.02;79.88;100165.81;1507813;92;21086;-79
2022/12/31 11:40:42;;;;;;;1.60;1.00;;;;;;;15.20;79.66;100154.61;1503719;93;21638;-75
2022/12/31 11:43:18;;;;;;;1.30;0.90;;;;;;;15.20;79.66;100154.61;1480667;93;21095;-76
2022/12/31 11:46:17;;;;;;;2.25;1.25;;;;;;;15.58;79.25;100153.60;1600367;87;21141;-77
2022/12/31 11:49:09;;;;;;;1.72;1.00;;;;;;;15.58;79.25;100153.60;1597951;88;21238;-76
2022/12/31 11:52:14;;;;;;;2.65;1.40;;;;;;;15.83;79.13;100160.04;1576794;86;21128;-76
2022/12/31 11:55:28;;;;;;;1.45;0.90;;;;;;;16.18;79.29;100157.78;1627559;86;21079;-76
2022/12/31 11:58:00;;;;;;;2.87;1.27;;;;;;;16.62;78.84;100159.81;1602349;88;21665;-76
2022/12/31 12:00:31;;;;;;;2.80;1.30;;;;;;;16.92;78.10;100157.80;1599120;88;21115;-76
2022/12/31 12:03:03;;;;;;;2.22;1.12;;;;;;;17.01;77.59;100155.00;1613662;86;21159;-75
2022/12/31 12:05:39;;;;;;;1.70;1.30;;;;;;;17.16;77.18;100165.05;1597881;87;21134;-77
2022/12/31 12:08:16;;;;;;;7.42;1.92;;;;;;;17.20;76.50;100157.25;1575986;89;21604;-77
2022/12/31 12:10:54;;;;;;;2.02;1.10;;;;;;;17.13;75.90;100154.19;1601058;87;21118;-78
2022/12/31 12:13:28;;;;;;;1.30;1.02;;;;;;;17.00;75.64;100163.91;1599480;89;21095;-75
2022/12/31 12:15:59;;;;;;;1.55;0.95;;;;;;;16.87;75.23;100163.03;1601008;88;21479;-77
2022/12/31 12:18:46;;;;;;;1.72;1.10;;;;;;;16.85;75.20;100149.05;1600311;88;21036;-76
2022/12/31 12:21:21;;;;;;;1.45;1.15;;;;;;;16.87;75.10;100164.36;1599744;89;21039;-78
2022/12/31 12:24:05;;;;;;;1.70;1.07;;;;;;;16.91;75.06;100172.48;1600680;88;21064;-78